DataTemp.
Ø
Temp.
Max
Temp.
Min
UmiditàPressionePioggiaVento
Ø
Vento
dir. Ø
Vento
Max
Rad. solare
Ø
Rad. solare
Max
04.09.2026 00:0020.9°C20.9°C20.9°C74.3%1018.7hPa0.0mm1.4km/hW3.2km/h0.0W/m²0W/m²
04.09.2026 00:0520.9°C20.9°C20.8°C74.9%1018.7hPa0.0mm1.4km/hWSW3.2km/h0.0W/m²0W/m²
04.09.2026 00:1020.8°C20.9°C20.8°C75.1%1018.8hPa0.0mm1.0km/hWSW1.4km/h0.0W/m²0W/m²
04.09.2026 00:1520.7°C20.8°C20.7°C76.0%1018.8hPa0.0mm0.8km/hWSW3.2km/h0.0W/m²0W/m²
04.09.2026 00:2020.6°C20.7°C20.5°C76.8%1018.9hPa0.0mm0.7km/hW4.7km/h0.0W/m²0W/m²
04.09.2026 00:2520.4°C20.5°C20.4°C77.0%1018.8hPa0.0mm1.4km/hWSW3.2km/h0.0W/m²0W/m²
04.09.2026 00:3020.3°C20.4°C20.3°C77.0%1018.8hPa0.0mm1.4km/hSW4.7km/h0.0W/m²0W/m²
04.09.2026 00:3520.2°C20.2°C20.1°C77.2%1018.8hPa0.0mm1.3km/hSW1.4km/h0.0W/m²0W/m²
04.09.2026 00:4020.1°C20.2°C20.1°C77.8%1018.8hPa0.0mm0.0km/hWSW3.2km/h0.0W/m²0W/m²
04.09.2026 00:4520.0°C20.1°C19.9°C78.0%1018.7hPa0.0mm1.0km/hSSW3.2km/h0.0W/m²0W/m²
04.09.2026 00:5019.9°C19.9°C19.9°C78.0%1018.8hPa0.0mm1.4km/hSSW3.2km/h0.0W/m²0W/m²
04.09.2026 00:5519.8°C19.9°C19.8°C78.1%1018.8hPa0.0mm0.7km/hSSW1.4km/h0.0W/m²0W/m²
04.09.2026 01:0019.8°C19.8°C19.7°C78.4%1018.8hPa0.0mm0.0km/hSSW0.0km/h0.0W/m²0W/m²
04.09.2026 01:0519.7°C19.8°C19.7°C78.7%1018.9hPa0.0mm0.0km/hSSW4.7km/h0.0W/m²0W/m²
04.09.2026 01:1019.6°C19.7°C19.6°C78.0%1018.8hPa0.0mm1.2km/hS4.7km/h0.0W/m²0W/m²
04.09.2026 01:1519.7°C19.7°C19.6°C77.6%1018.9hPa0.0mm1.4km/hW4.7km/h0.0W/m²0W/m²
04.09.2026 01:2019.7°C19.7°C19.7°C77.0%1018.9hPa0.0mm1.4km/hSW4.7km/h0.0W/m²0W/m²
04.09.2026 01:2519.8°C19.8°C19.7°C77.4%1018.9hPa0.0mm1.4km/hWSW3.2km/h0.0W/m²0W/m²
04.09.2026 01:3019.7°C19.8°C19.6°C78.0%1018.9hPa0.0mm1.4km/hSSW3.2km/h0.0W/m²0W/m²
04.09.2026 01:3519.6°C19.7°C19.6°C78.6%1019.0hPa0.0mm1.4km/hSSW3.2km/h0.0W/m²0W/m²
04.09.2026 01:4019.6°C19.6°C19.5°C79.0%1019.0hPa0.0mm1.3km/hSSW3.2km/h0.0W/m²0W/m²
04.09.2026 01:4519.6°C19.6°C19.5°C79.0%1019.0hPa0.0mm0.0km/hSSW3.2km/h0.0W/m²0W/m²
04.09.2026 01:5019.6°C19.6°C19.5°C78.4%1019.0hPa0.0mm0.0km/hSSW3.2km/h0.0W/m²0W/m²
04.09.2026 01:5519.6°C19.6°C19.5°C78.8%1019.0hPa0.0mm0.0km/hSSW3.2km/h0.0W/m²0W/m²
04.09.2026 02:0019.4°C19.5°C19.2°C79.0%1019.0hPa0.0mm0.7km/hWSW6.5km/h0.0W/m²0W/m²
04.09.2026 02:0519.0°C19.2°C18.9°C79.9%1019.0hPa0.0mm2.6km/hSSW6.5km/h0.0W/m²0W/m²
04.09.2026 02:1018.8°C18.9°C18.7°C80.9%1019.0hPa0.0mm3.1km/hWSW3.2km/h0.0W/m²0W/m²
04.09.2026 02:1518.7°C18.7°C18.7°C81.8%1019.0hPa0.0mm1.4km/hW1.4km/h0.0W/m²0W/m²
04.09.2026 02:2018.7°C18.8°C18.7°C82.0%1019.0hPa0.0mm0.2km/hW3.2km/h0.0W/m²0W/m²
04.09.2026 02:2518.8°C18.8°C18.7°C82.0%1019.0hPa0.0mm0.7km/hSSW4.7km/h0.0W/m²0W/m²
04.09.2026 02:3018.8°C18.8°C18.8°C81.2%1018.9hPa0.0mm1.9km/hSSW4.7km/h0.0W/m²0W/m²
04.09.2026 02:3518.7°C18.8°C18.7°C81.2%1018.9hPa0.0mm2.8km/hS1.4km/h0.0W/m²0W/m²
04.09.2026 02:4018.7°C18.7°C18.6°C82.0%1019.0hPa0.0mm1.0km/hS1.4km/h0.0W/m²0W/m²
04.09.2026 02:4518.6°C18.7°C18.6°C81.5%1019.0hPa0.0mm0.0km/hS1.4km/h0.0W/m²0W/m²
04.09.2026 02:5018.7°C18.7°C18.6°C81.3%1019.0hPa0.0mm0.0km/hN3.2km/h0.0W/m²0W/m²
04.09.2026 02:5518.7°C18.8°C18.7°C81.2%1019.0hPa0.0mm0.7km/hNW3.2km/h0.0W/m²0W/m²
04.09.2026 03:0018.7°C18.8°C18.7°C81.0%1019.0hPa0.0mm1.4km/hSW1.4km/h0.0W/m²0W/m²
04.09.2026 03:0518.7°C18.7°C18.6°C81.0%1019.0hPa0.0mm1.4km/hSW3.2km/h0.0W/m²0W/m²
04.09.2026 03:1018.6°C18.7°C18.6°C81.0%1019.0hPa0.0mm1.4km/hSW3.2km/h0.0W/m²0W/m²
04.09.2026 03:1518.6°C18.6°C18.6°C81.7%1019.0hPa0.0mm1.3km/hSW3.2km/h0.0W/m²0W/m²
04.09.2026 03:2018.6°C18.6°C18.6°C82.0%1019.0hPa0.0mm0.1km/hSW3.2km/h0.0W/m²0W/m²
04.09.2026 03:2518.6°C18.6°C18.5°C82.0%1019.0hPa0.0mm1.4km/hWNW3.2km/h0.0W/m²0W/m²
04.09.2026 03:3018.5°C18.6°C18.4°C82.0%1019.0hPa0.0mm1.4km/hSSW3.2km/h0.0W/m²0W/m²
04.09.2026 03:3518.4°C18.4°C18.3°C82.0%1019.0hPa0.0mm1.4km/hSW3.2km/h0.0W/m²0W/m²
04.09.2026 03:4018.3°C18.4°C18.2°C82.0%1019.0hPa0.0mm1.4km/hNW3.2km/h0.0W/m²0W/m²
04.09.2026 03:4518.1°C18.2°C18.1°C82.1%1019.0hPa0.0mm0.7km/hNW1.4km/h0.0W/m²0W/m²
04.09.2026 03:5018.1°C18.1°C18.1°C83.0%1019.0hPa0.0mm0.5km/hWSW3.2km/h0.0W/m²0W/m²
04.09.2026 03:5518.1°C18.1°C18.0°C83.0%1019.1hPa0.0mm1.2km/hSSW4.7km/h0.0W/m²0W/m²
04.09.2026 04:0018.0°C18.1°C17.9°C83.0%1019.2hPa0.0mm1.4km/hSSW3.2km/h0.0W/m²0W/m²
04.09.2026 04:0517.9°C18.0°C17.9°C83.0%1019.2hPa0.0mm1.4km/hSSW3.2km/h0.0W/m²0W/m²
04.09.2026 04:1017.9°C17.9°C17.9°C83.0%1019.3hPa0.0mm1.4km/hW4.7km/h0.0W/m²0W/m²
04.09.2026 04:1517.8°C17.8°C17.7°C83.0%1019.3hPa0.0mm1.6km/hW4.7km/h0.0W/m²0W/m²
04.09.2026 04:2017.6°C17.7°C17.6°C83.8%1019.2hPa0.0mm2.4km/hSSW3.2km/h0.0W/m²0W/m²
04.09.2026 04:2517.6°C17.6°C17.6°C84.0%1019.2hPa0.0mm1.4km/hSSW1.4km/h0.0W/m²0W/m²
04.09.2026 04:3017.6°C17.6°C17.5°C84.0%1019.2hPa0.0mm0.5km/hSSW1.4km/h0.0W/m²0W/m²
04.09.2026 04:3517.6°C17.6°C17.5°C84.0%1019.2hPa0.0mm0.0km/hSSW0.0km/h0.0W/m²0W/m²
04.09.2026 04:4017.6°C17.6°C17.6°C84.7%1019.1hPa0.0mm0.0km/hSSW1.4km/h0.0W/m²0W/m²
04.09.2026 04:4517.6°C17.7°C17.6°C84.2%1019.1hPa0.0mm0.1km/hSSW3.2km/h0.0W/m²0W/m²
04.09.2026 04:5017.7°C17.8°C17.7°C83.2%1019.0hPa0.0mm1.4km/hSSW1.4km/h0.0W/m²0W/m²
04.09.2026 04:5517.8°C17.8°C17.7°C82.9%1019.0hPa0.0mm0.2km/hSSW3.2km/h0.0W/m²0W/m²
04.09.2026 05:0017.8°C17.8°C17.8°C82.2%1019.0hPa0.0mm0.0km/hSSW0.0km/h0.0W/m²0W/m²
04.09.2026 05:0517.8°C17.8°C17.8°C82.0%1019.0hPa0.0mm0.0km/hSSW0.0km/h0.0W/m²0W/m²
04.09.2026 05:1017.8°C17.8°C17.8°C82.7%1019.2hPa0.0mm0.0km/hSSW3.2km/h0.0W/m²0W/m²
04.09.2026 05:1517.7°C17.8°C17.7°C83.0%1019.2hPa0.0mm0.0km/hSSW1.4km/h0.0W/m²0W/m²
04.09.2026 05:2017.7°C17.7°C17.7°C83.2%1019.3hPa0.0mm0.0km/hSSW1.4km/h0.0W/m²0W/m²
04.09.2026 05:2517.6°C17.7°C17.6°C84.0%1019.3hPa0.0mm0.0km/hSSW3.2km/h0.0W/m²0W/m²
04.09.2026 05:3017.5°C17.6°C17.4°C84.0%1019.4hPa0.0mm1.3km/hW3.2km/h0.0W/m²0W/m²
04.09.2026 05:3517.3°C17.4°C17.3°C84.0%1019.3hPa0.0mm1.4km/hWSW3.2km/h0.0W/m²0W/m²
04.09.2026 05:4017.2°C17.3°C17.2°C84.9%1019.3hPa0.0mm1.4km/hWSW3.2km/h0.0W/m²0W/m²
04.09.2026 05:4517.2°C17.2°C17.1°C85.0%1019.3hPa0.0mm1.4km/hS1.4km/h0.0W/m²0W/m²
04.09.2026 05:5017.1°C17.1°C17.1°C85.0%1019.2hPa0.0mm1.0km/hS3.2km/h0.0W/m²0W/m²
04.09.2026 05:5517.1°C17.1°C17.1°C85.3%1019.3hPa0.0mm0.9km/hSSW1.4km/h0.0W/m²0W/m²
04.09.2026 06:0017.1°C17.1°C17.1°C85.8%1019.4hPa0.0mm1.1km/hSSW1.4km/h0.0W/m²0W/m²
04.09.2026 06:0517.1°C17.1°C17.1°C86.0%1019.4hPa0.0mm0.0km/hSSW0.0km/h0.0W/m²0W/m²
04.09.2026 06:1017.1°C17.1°C17.0°C85.4%1019.4hPa0.0mm0.0km/hSSW0.0km/h0.0W/m²0W/m²
04.09.2026 06:1517.1°C17.1°C17.0°C85.2%1019.4hPa0.0mm0.0km/hSSW3.2km/h0.0W/m²0W/m²
04.09.2026 06:2017.1°C17.1°C17.1°C85.5%1019.4hPa0.0mm1.2km/hW3.2km/h0.0W/m²0W/m²
04.09.2026 06:2517.1°C17.1°C17.0°C86.0%1019.3hPa0.0mm1.3km/hW1.4km/h0.0W/m²0W/m²
04.09.2026 06:3017.0°C17.1°C17.0°C86.0%1019.3hPa0.0mm0.1km/hW3.2km/h0.0W/m²0W/m²
04.09.2026 06:3517.0°C17.1°C17.0°C86.0%1019.4hPa0.0mm1.4km/hW3.2km/h0.0W/m²0W/m²
04.09.2026 06:4017.0°C17.1°C17.0°C86.0%1019.4hPa0.0mm1.4km/hWSW3.2km/h0.0W/m²0W/m²
04.09.2026 06:4517.1°C17.1°C17.0°C86.0%1019.5hPa0.0mm0.8km/hWSW3.2km/h4.8W/m²7W/m²
04.09.2026 06:5017.1°C17.1°C17.0°C86.0%1019.5hPa0.0mm1.4km/hSSW4.7km/h7.8W/m²9W/m²
04.09.2026 06:5517.0°C17.1°C16.9°C85.7%1019.5hPa0.0mm1.4km/hW4.7km/h9.7W/m²11W/m²
04.09.2026 07:0016.9°C16.9°C16.8°C85.3%1019.5hPa0.0mm1.4km/hW4.7km/h11.7W/m²12W/m²
04.09.2026 07:0516.8°C16.8°C16.8°C86.0%1019.6hPa0.0mm1.4km/hW4.7km/h13.0W/m²14W/m²
04.09.2026 07:1016.8°C16.8°C16.8°C86.0%1019.7hPa0.0mm2.3km/hWSW3.2km/h14.0W/m²14W/m²
04.09.2026 07:1516.8°C16.8°C16.7°C86.0%1019.7hPa0.0mm2.0km/hW3.2km/h15.7W/m²16W/m²
04.09.2026 07:2016.7°C16.8°C16.7°C86.0%1019.7hPa0.0mm1.4km/hW1.4km/h16.9W/m²18W/m²
04.09.2026 07:2516.8°C16.8°C16.7°C86.6%1019.8hPa0.0mm1.3km/hW3.2km/h21.5W/m²25W/m²
04.09.2026 07:3016.8°C16.9°C16.8°C86.2%1019.8hPa0.0mm0.9km/hW3.2km/h21.8W/m²25W/m²
04.09.2026 07:3516.9°C16.9°C16.8°C86.0%1019.9hPa0.0mm1.4km/hSSW6.5km/h22.0W/m²23W/m²
04.09.2026 07:4017.0°C17.1°C16.9°C86.0%1019.8hPa0.0mm1.4km/hSSW4.7km/h24.3W/m²25W/m²
04.09.2026 07:4517.1°C17.2°C17.1°C86.0%1019.8hPa0.0mm1.4km/hW3.2km/h27.0W/m²28W/m²
04.09.2026 07:5017.3°C17.4°C17.2°C86.0%1019.8hPa0.0mm1.4km/hW4.7km/h30.0W/m²30W/m²
04.09.2026 07:5517.5°C17.6°C17.4°C85.4%1019.8hPa0.0mm1.4km/hW3.2km/h30.6W/m²32W/m²
04.09.2026 08:0017.7°C17.8°C17.6°C85.0%1019.7hPa0.0mm1.4km/hSW3.2km/h31.6W/m²32W/m²
04.09.2026 08:0517.8°C17.9°C17.7°C84.8%1019.8hPa0.0mm1.4km/hW4.7km/h32.2W/m²33W/m²
04.09.2026 08:1017.9°C18.0°C17.9°C84.0%1019.7hPa0.0mm1.9km/hW6.5km/h33.0W/m²33W/m²
04.09.2026 08:1518.1°C18.2°C18.0°C84.0%1019.8hPa0.0mm3.2km/hW4.7km/h34.7W/m²35W/m²
04.09.2026 08:2018.2°C18.3°C18.2°C84.0%1019.8hPa0.0mm2.9km/hW4.7km/h36.0W/m²37W/m²
04.09.2026 08:2518.4°C18.6°C18.3°C83.7%1019.8hPa0.0mm3.2km/hW6.5km/h59.3W/m²104W/m²
04.09.2026 08:3018.7°C18.8°C18.6°C83.0%1019.8hPa0.0mm3.1km/hSW3.2km/h248.8W/m²255W/m²
04.09.2026 08:3519.0°C19.2°C18.8°C82.8%1019.8hPa0.0mm1.4km/hW4.7km/h262.8W/m²269W/m²
04.09.2026 08:4019.3°C19.4°C19.2°C82.1%1019.8hPa0.0mm1.4km/hW4.7km/h276.8W/m²281W/m²
04.09.2026 08:4519.6°C19.8°C19.4°C81.9%1019.7hPa0.0mm1.4km/hNW1.4km/h289.5W/m²295W/m²
04.09.2026 08:5019.9°C20.1°C19.7°C80.7%1019.7hPa0.0mm1.4km/hW4.7km/h304.2W/m²311W/m²
04.09.2026 08:5520.2°C20.3°C20.1°C79.2%1019.7hPa0.0mm1.4km/hW4.7km/h317.5W/m²323W/m²
04.09.2026 09:0020.4°C20.5°C20.3°C78.2%1019.7hPa0.0mm1.4km/hW3.2km/h331.7W/m²338W/m²
04.09.2026 09:0520.6°C20.7°C20.5°C77.4%1019.7hPa0.0mm1.4km/hW3.2km/h339.8W/m²343W/m²
04.09.2026 09:1020.8°C20.9°C20.7°C76.8%1019.8hPa0.0mm1.4km/hWSW4.7km/h356.5W/m²366W/m²
04.09.2026 09:1521.1°C21.2°C20.9°C75.7%1019.7hPa0.0mm1.4km/hSW4.7km/h371.4W/m²376W/m²
04.09.2026 09:2021.3°C21.4°C21.2°C74.7%1019.6hPa0.0mm1.4km/hW6.5km/h385.2W/m²390W/m²
04.09.2026 09:2521.7°C21.8°C21.5°C73.6%1019.5hPa0.0mm1.4km/hWNW4.7km/h397.7W/m²403W/m²
04.09.2026 09:3021.9°C22.0°C21.8°C72.4%1019.5hPa0.0mm3.0km/hWSW6.5km/h410.5W/m²417W/m²
04.09.2026 09:3522.1°C22.2°C22.0°C71.6%1019.5hPa0.0mm3.2km/hSSW6.5km/h423.7W/m²429W/m²
04.09.2026 09:4022.1°C22.1°C22.1°C71.0%1019.4hPa0.0mm3.2km/hSSW6.5km/h436.8W/m²443W/m²
04.09.2026 09:4522.3°C22.5°C22.1°C70.5%1019.4hPa0.0mm3.2km/hSW4.7km/h448.7W/m²454W/m²
04.09.2026 09:5022.5°C22.8°C22.4°C69.0%1019.4hPa0.0mm2.8km/hSSW6.5km/h459.8W/m²464W/m²
04.09.2026 09:5522.9°C22.9°C22.8°C67.8%1019.4hPa0.0mm1.4km/hSSW6.5km/h471.3W/m²478W/m²
04.09.2026 10:0022.9°C23.1°C22.8°C67.3%1019.4hPa0.0mm1.4km/hSSE4.7km/h484.8W/m²490W/m²
04.09.2026 10:0523.4°C23.5°C23.2°C66.2%1019.4hPa0.0mm1.4km/hSSW4.7km/h495.7W/m²501W/m²
04.09.2026 10:1023.5°C23.7°C23.4°C64.7%1019.3hPa0.0mm1.4km/hWSW6.5km/h508.2W/m²512W/m²
04.09.2026 10:1523.5°C23.8°C23.4°C66.2%1019.3hPa0.0mm1.4km/hWSW4.7km/h517.8W/m²522W/m²
04.09.2026 10:2023.8°C23.9°C23.8°C66.3%1019.2hPa0.0mm1.8km/hS6.5km/h529.7W/m²534W/m²
04.09.2026 10:2524.0°C24.1°C23.9°C65.4%1019.2hPa0.0mm1.9km/hSSW6.5km/h538.4W/m²543W/m²
04.09.2026 10:3024.3°C24.4°C24.2°C63.7%1019.2hPa0.0mm3.2km/hSSW4.7km/h548.8W/m²554W/m²
04.09.2026 10:3524.4°C24.6°C24.3°C63.2%1019.1hPa0.0mm1.7km/hSW4.7km/h559.8W/m²564W/m²
04.09.2026 10:4024.5°C24.7°C24.4°C63.2%1019.0hPa0.0mm1.4km/hS4.7km/h571.5W/m²577W/m²
04.09.2026 10:4524.8°C24.9°C24.7°C62.1%1019.0hPa0.0mm1.4km/hE6.5km/h580.8W/m²584W/m²
04.09.2026 10:5025.1°C25.4°C25.0°C61.3%1018.9hPa0.0mm1.8km/hE3.2km/h589.5W/m²592W/m²
04.09.2026 10:5525.6°C25.7°C25.4°C60.5%1018.9hPa0.0mm1.4km/hESE6.5km/h598.2W/m²603W/m²
04.09.2026 11:0025.7°C25.7°C25.7°C59.2%1018.9hPa0.0mm1.4km/hSE4.7km/h607.2W/m²610W/m²
04.09.2026 11:0525.9°C26.2°C25.7°C59.8%1018.9hPa0.0mm1.4km/hESE7.9km/h614.7W/m²617W/m²
04.09.2026 11:1025.9°C26.0°C25.8°C58.4%1018.9hPa0.0mm1.4km/hE6.5km/h625.8W/m²629W/m²
04.09.2026 11:1526.2°C26.4°C25.9°C58.3%1018.8hPa0.0mm1.8km/hNE3.2km/h632.8W/m²636W/m²
04.09.2026 11:2026.6°C26.7°C26.5°C56.8%1018.7hPa0.0mm1.4km/hENE3.2km/h642.5W/m²647W/m²
04.09.2026 11:2526.6°C26.7°C26.5°C56.9%1018.6hPa0.0mm1.4km/hN4.7km/h649.5W/m²652W/m²
04.09.2026 11:3026.6°C26.8°C26.5°C55.8%1018.6hPa0.0mm2.2km/hNNE6.5km/h655.2W/m²659W/m²
04.09.2026 11:3526.6°C26.7°C26.6°C55.4%1018.6hPa0.0mm3.2km/hSE4.7km/h662.3W/m²664W/m²
04.09.2026 11:4026.8°C26.9°C26.7°C54.3%1018.5hPa0.0mm2.0km/hSE7.9km/h665.7W/m²668W/m²
04.09.2026 11:4527.1°C27.3°C26.8°C54.1%1018.4hPa0.0mm1.4km/hESE4.7km/h671.2W/m²673W/m²
04.09.2026 11:5027.4°C27.6°C27.2°C53.6%1018.4hPa0.0mm1.4km/hE6.5km/h677.8W/m²680W/m²
04.09.2026 11:5527.4°C27.5°C27.3°C53.3%1018.3hPa0.0mm2.2km/hNNE6.5km/h680.8W/m²682W/m²
04.09.2026 12:0027.7°C28.1°C27.3°C53.6%1018.3hPa0.0mm1.9km/hENE3.2km/h683.9W/m²687W/m²
04.09.2026 12:0528.2°C28.3°C28.1°C51.6%1018.2hPa0.0mm1.3km/hE3.2km/h689.8W/m²691W/m²
04.09.2026 12:1028.2°C28.3°C27.9°C51.5%1018.1hPa0.0mm1.2km/hN6.5km/h691.8W/m²696W/m²
04.09.2026 12:1527.7°C27.8°C27.6°C51.6%1018.0hPa0.0mm1.4km/hSW7.9km/h695.3W/m²696W/m²
04.09.2026 12:2028.3°C28.6°C27.9°C51.3%1017.9hPa0.0mm1.4km/hNE3.2km/h698.0W/m²700W/m²
04.09.2026 12:2528.8°C28.9°C28.6°C50.6%1017.9hPa0.0mm1.4km/hESE6.5km/h701.5W/m²705W/m²
04.09.2026 12:3028.6°C28.8°C28.5°C50.0%1017.8hPa0.0mm1.5km/hSE7.9km/h707.3W/m²708W/m²
04.09.2026 12:3528.7°C28.8°C28.7°C50.0%1017.7hPa0.0mm3.2km/hE7.9km/h707.6W/m²708W/m²
04.09.2026 12:4028.9°C29.0°C28.7°C49.3%1017.7hPa0.0mm1.7km/hENE3.2km/h709.0W/m²712W/m²
04.09.2026 12:4528.9°C29.0°C28.8°C48.6%1017.7hPa0.0mm1.4km/hS6.5km/h712.7W/m²715W/m²
04.09.2026 12:5029.2°C29.3°C29.0°C47.6%1017.6hPa0.0mm1.6km/hESE7.9km/h715.0W/m²717W/m²
04.09.2026 12:5529.5°C29.6°C29.3°C47.3%1017.5hPa0.0mm2.7km/hE4.7km/h714.2W/m²715W/m²
04.09.2026 13:0029.4°C29.5°C29.2°C48.2%1017.4hPa0.0mm2.4km/hE6.5km/h717.7W/m²719W/m²
04.09.2026 13:0529.7°C30.1°C29.4°C48.6%1017.3hPa0.0mm3.2km/hESE7.9km/h716.7W/m²717W/m²
04.09.2026 13:1029.9°C30.2°C29.6°C46.6%1017.3hPa0.0mm3.2km/hNNE6.5km/h717.4W/m²719W/m²
04.09.2026 13:1529.6°C29.8°C29.5°C46.5%1017.3hPa0.0mm3.2km/hESE6.5km/h716.7W/m²717W/m²
04.09.2026 13:2030.3°C30.5°C29.9°C46.5%1017.3hPa0.0mm2.8km/hESE3.2km/h714.8W/m²717W/m²
04.09.2026 13:2530.6°C30.7°C30.4°C44.3%1017.3hPa0.0mm1.4km/hNW6.5km/h712.7W/m²714W/m²
04.09.2026 13:3030.5°C30.6°C30.4°C44.3%1017.2hPa0.0mm1.4km/hNNE7.9km/h712.3W/m²714W/m²
04.09.2026 13:3530.5°C30.7°C30.4°C45.1%1017.1hPa0.0mm2.2km/hSSE7.9km/h710.3W/m²712W/m²
04.09.2026 13:4030.3°C30.4°C30.2°C45.0%1017.0hPa0.0mm3.2km/hE7.9km/h708.3W/m²710W/m²
04.09.2026 13:4530.8°C31.1°C30.4°C46.2%1016.9hPa0.0mm2.7km/hENE4.7km/h703.0W/m²705W/m²
04.09.2026 13:5031.3°C31.4°C31.0°C45.6%1016.9hPa0.0mm1.4km/hESE4.7km/h701.3W/m²703W/m²
04.09.2026 13:5531.3°C31.4°C31.3°C45.2%1016.8hPa0.0mm1.4km/hE4.7km/h700.2W/m²701W/m²
04.09.2026 14:0030.9°C31.2°C30.8°C45.8%1016.7hPa0.0mm1.4km/hS6.5km/h699.3W/m²700W/m²
04.09.2026 14:0531.1°C31.2°C30.9°C46.4%1016.7hPa0.0mm2.6km/hNNE6.5km/h694.5W/m²698W/m²
04.09.2026 14:1031.3°C31.4°C31.2°C45.6%1016.6hPa0.0mm3.2km/hNNE9.7km/h688.5W/m²691W/m²
04.09.2026 14:1531.5°C31.6°C31.4°C45.2%1016.6hPa0.0mm3.2km/hN7.9km/h678.7W/m²686W/m²
04.09.2026 14:2031.6°C31.7°C31.5°C45.2%1016.5hPa0.0mm3.2km/hNNE7.9km/h672.7W/m²675W/m²
04.09.2026 14:2531.8°C32.0°C31.7°C44.6%1016.4hPa0.0mm3.2km/hNNE7.9km/h666.0W/m²668W/m²
04.09.2026 14:3031.9°C32.1°C31.8°C44.5%1016.4hPa0.0mm3.2km/hNNE9.7km/h663.0W/m²666W/m²
04.09.2026 14:3532.0°C32.1°C31.9°C44.3%1016.4hPa0.0mm3.2km/hE6.5km/h655.5W/m²659W/m²
04.09.2026 14:4032.2°C32.4°C32.0°C45.7%1016.4hPa0.0mm2.1km/hN4.7km/h645.2W/m²652W/m²
04.09.2026 14:4532.2°C32.4°C31.9°C44.6%1016.3hPa0.0mm1.4km/hN7.9km/h643.0W/m²647W/m²
04.09.2026 14:5032.1°C32.3°C31.8°C45.7%1016.3hPa0.0mm3.0km/hNNE6.5km/h633.7W/m²640W/m²
04.09.2026 14:5532.4°C32.6°C32.3°C44.1%1016.2hPa0.0mm1.7km/hNNE4.7km/h624.0W/m²626W/m²
04.09.2026 15:0032.5°C32.6°C32.4°C43.8%1016.2hPa0.0mm1.9km/hNNE7.9km/h621.3W/m²624W/m²
04.09.2026 15:0532.5°C32.6°C32.4°C44.8%1016.2hPa0.0mm3.2km/hNNE6.5km/h609.7W/m²619W/m²
04.09.2026 15:1032.8°C32.9°C32.7°C43.3%1016.1hPa0.0mm3.2km/hNNE7.9km/h610.2W/m²612W/m²
04.09.2026 15:1532.9°C32.9°C32.8°C43.3%1016.1hPa0.0mm3.2km/hNNW4.7km/h602.2W/m²605W/m²
04.09.2026 15:2032.7°C32.9°C32.6°C43.8%1016.0hPa0.0mm3.2km/hNNE7.9km/h593.8W/m²599W/m²
04.09.2026 15:2532.8°C32.9°C32.7°C43.6%1015.9hPa0.0mm3.2km/hNNE6.5km/h577.8W/m²587W/m²
04.09.2026 15:3032.8°C32.9°C32.8°C43.5%1015.7hPa0.0mm3.2km/hNNE4.7km/h565.2W/m²571W/m²
04.09.2026 15:3532.9°C33.1°C32.7°C43.1%1015.5hPa0.0mm2.5km/hNNE14.4km/h565.7W/m²568W/m²
04.09.2026 15:4032.6°C33.0°C32.4°C44.5%1015.4hPa0.0mm3.9km/hN13.0km/h560.0W/m²563W/m²
04.09.2026 15:4533.2°C33.3°C33.1°C44.2%1015.4hPa0.0mm3.7km/hNNE7.9km/h552.0W/m²561W/m²
04.09.2026 15:5033.0°C33.2°C32.8°C43.9%1015.4hPa0.0mm3.2km/hNNE9.7km/h535.3W/m²547W/m²
04.09.2026 15:5532.7°C32.7°C32.7°C45.0%1015.4hPa0.0mm3.2km/hN6.5km/h525.5W/m²529W/m²
04.09.2026 16:0032.6°C32.8°C32.4°C44.9%1015.4hPa0.0mm4.2km/hNE14.4km/h514.2W/m²517W/m²
04.09.2026 16:0532.5°C32.6°C32.4°C45.2%1015.3hPa0.0mm4.7km/hNNE9.7km/h501.2W/m²513W/m²
04.09.2026 16:1032.7°C32.8°C32.5°C45.5%1015.3hPa0.0mm3.7km/hNNE7.9km/h496.2W/m²504W/m²
04.09.2026 16:1532.9°C32.9°C32.8°C45.4%1015.3hPa0.0mm3.2km/hNNE9.7km/h489.7W/m²492W/m²
04.09.2026 16:2032.9°C33.0°C32.9°C45.1%1015.3hPa0.0mm2.4km/hNNE7.9km/h473.0W/m²478W/m²
04.09.2026 16:2532.8°C32.8°C32.7°C45.4%1015.3hPa0.0mm3.2km/hN11.2km/h473.8W/m²478W/m²
04.09.2026 16:3032.8°C33.0°C32.7°C45.0%1015.2hPa0.0mm3.2km/hNE4.7km/h456.8W/m²462W/m²
04.09.2026 16:3532.8°C32.9°C32.7°C44.8%1015.1hPa0.0mm3.2km/hNNE9.7km/h424.5W/m²441W/m²
04.09.2026 16:4032.4°C32.6°C32.3°C45.9%1015.1hPa0.0mm3.2km/hN13.0km/h423.8W/m²429W/m²
04.09.2026 16:4532.5°C32.6°C32.3°C45.9%1015.1hPa0.0mm3.9km/hNNE7.9km/h414.7W/m²422W/m²
04.09.2026 16:5032.3°C32.4°C32.3°C46.1%1015.0hPa0.0mm3.4km/hNE4.7km/h400.3W/m²406W/m²
04.09.2026 16:5532.4°C32.4°C32.3°C45.9%1015.0hPa0.0mm2.4km/hNNE7.9km/h333.7W/m²385W/m²
04.09.2026 17:0032.4°C32.5°C32.2°C46.1%1015.0hPa0.0mm2.6km/hN7.9km/h286.8W/m²306W/m²
04.09.2026 17:0532.2°C32.3°C32.1°C46.5%1015.0hPa0.0mm3.2km/hNNE7.9km/h345.8W/m²355W/m²
04.09.2026 17:1031.9°C32.1°C31.8°C46.6%1015.0hPa0.0mm3.9km/hNNE11.2km/h333.5W/m²353W/m²
04.09.2026 17:1531.9°C32.0°C31.8°C46.7%1015.0hPa0.0mm4.7km/hN7.9km/h332.2W/m²339W/m²
04.09.2026 17:2032.2°C32.3°C32.1°C47.2%1014.9hPa0.0mm3.6km/hNE4.7km/h319.5W/m²325W/m²
04.09.2026 17:2532.5°C32.6°C32.4°C46.7%1014.9hPa0.0mm1.4km/hENE3.2km/h303.2W/m²311W/m²
04.09.2026 17:3032.3°C32.4°C32.0°C46.0%1014.9hPa0.0mm1.4km/hNNE11.2km/h288.5W/m²295W/m²
04.09.2026 17:3531.9°C32.0°C31.8°C46.5%1014.8hPa0.0mm3.0km/hNNE7.9km/h271.2W/m²279W/m²
04.09.2026 17:4031.9°C31.9°C31.8°C46.3%1014.9hPa0.0mm3.2km/hNNE7.9km/h254.3W/m²262W/m²
04.09.2026 17:4531.7°C31.8°C31.7°C47.0%1014.9hPa0.0mm3.2km/hNE7.9km/h171.2W/m²246W/m²
04.09.2026 17:5031.6°C31.7°C31.6°C47.1%1014.9hPa0.0mm3.2km/hN6.5km/h208.0W/m²234W/m²
04.09.2026 17:5531.7°C31.8°C31.7°C47.4%1014.8hPa0.0mm1.7km/hNNE6.5km/h215.3W/m²220W/m²
04.09.2026 18:0031.8°C31.8°C31.7°C47.5%1014.8hPa0.0mm1.4km/hNNE4.7km/h202.2W/m²207W/m²
04.09.2026 18:0531.8°C31.8°C31.7°C47.5%1014.8hPa0.0mm1.3km/hNNE3.2km/h189.5W/m²195W/m²
04.09.2026 18:1031.8°C31.8°C31.7°C47.6%1014.8hPa0.0mm0.4km/hSW6.5km/h173.2W/m²179W/m²
04.09.2026 18:1531.7°C31.8°C31.7°C48.2%1014.7hPa0.0mm1.4km/hNNE3.2km/h157.2W/m²163W/m²
04.09.2026 18:2031.6°C31.7°C31.4°C49.4%1014.7hPa0.0mm1.4km/hESE4.7km/h140.8W/m²148W/m²
04.09.2026 18:2531.4°C31.5°C31.3°C48.6%1014.8hPa0.0mm1.0km/hN3.2km/h124.7W/m²132W/m²
04.09.2026 18:3031.3°C31.4°C31.3°C48.0%1014.8hPa0.0mm0.7km/hN4.7km/h108.3W/m²114W/m²
04.09.2026 18:3531.2°C31.3°C31.2°C47.2%1014.9hPa0.0mm1.4km/hN4.7km/h94.3W/m²100W/m²
04.09.2026 18:4031.1°C31.2°C31.0°C47.1%1015.0hPa0.0mm1.4km/hN4.7km/h83.5W/m²88W/m²
04.09.2026 18:4530.9°C31.1°C30.8°C47.5%1015.0hPa0.0mm1.4km/hNE6.5km/h71.5W/m²77W/m²
04.09.2026 18:5030.7°C30.8°C30.6°C47.9%1014.9hPa0.0mm1.4km/hNNE3.2km/h33.0W/m²44W/m²
04.09.2026 18:5530.6°C30.7°C30.4°C48.2%1015.0hPa0.0mm1.4km/hNNE6.5km/h27.0W/m²28W/m²
04.09.2026 19:0030.3°C30.4°C30.2°C49.1%1015.0hPa0.0mm1.4km/hENE1.4km/h24.0W/m²25W/m²
04.09.2026 19:0530.0°C30.2°C29.9°C50.5%1014.9hPa0.0mm1.0km/hENE1.4km/h21.0W/m²23W/m²
04.09.2026 19:1029.7°C29.9°C29.5°C52.6%1014.9hPa0.0mm0.0km/hENE3.2km/h18.5W/m²19W/m²
04.09.2026 19:1529.2°C29.6°C28.8°C54.2%1015.0hPa0.0mm1.3km/hENE6.5km/h15.7W/m²16W/m²
04.09.2026 19:2028.3°C28.7°C27.9°C56.1%1015.0hPa0.0mm2.3km/hS7.9km/h13.3W/m²14W/m²
04.09.2026 19:2527.6°C27.8°C27.4°C58.1%1015.0hPa0.0mm3.8km/hS6.5km/h11.2W/m²12W/m²
04.09.2026 19:3027.2°C27.4°C26.9°C59.4%1014.9hPa0.0mm3.2km/hS9.7km/h9.7W/m²11W/m²
04.09.2026 19:3526.7°C26.9°C26.6°C60.5%1015.0hPa0.0mm3.2km/hSSW7.9km/h7.0W/m²9W/m²
04.09.2026 19:4026.4°C26.5°C26.3°C61.2%1015.0hPa0.0mm2.7km/hSSE4.7km/h3.3W/m²5W/m²
04.09.2026 19:4526.1°C26.3°C26.0°C62.0%1015.0hPa0.0mm1.4km/hSE4.7km/h0.0W/m²0W/m²
04.09.2026 19:5025.9°C26.0°C25.9°C62.0%1015.0hPa0.0mm2.3km/hS7.9km/h0.0W/m²0W/m²
04.09.2026 19:5525.9°C25.9°C25.8°C62.0%1015.0hPa0.0mm3.6km/hS9.7km/h0.0W/m²0W/m²
04.09.2026 20:0025.8°C25.9°C25.8°C62.0%1015.0hPa0.0mm4.7km/hS7.9km/h0.0W/m²0W/m²
04.09.2026 20:0525.8°C25.8°C25.8°C62.0%1015.2hPa0.0mm3.7km/hSSW6.5km/h0.0W/m²0W/m²
04.09.2026 20:1025.7°C25.8°C25.7°C62.0%1015.4hPa0.0mm3.2km/hSSW7.9km/h0.0W/m²0W/m²
04.09.2026 20:1525.6°C25.7°C25.6°C62.0%1015.3hPa0.0mm4.2km/hS9.7km/h0.0W/m²0W/m²
04.09.2026 20:2025.6°C25.7°C25.6°C62.0%1015.5hPa0.0mm4.0km/hS6.5km/h0.0W/m²0W/m²
04.09.2026 20:2525.6°C25.6°C25.6°C61.7%1015.5hPa0.0mm3.2km/hS6.5km/h0.0W/m²0W/m²
04.09.2026 20:3025.5°C25.5°C25.4°C62.0%1015.6hPa0.0mm3.2km/hS6.5km/h0.0W/m²0W/m²
04.09.2026 20:3525.4°C25.5°C25.3°C62.0%1015.6hPa0.0mm3.2km/hSSW7.9km/h0.0W/m²0W/m²
04.09.2026 20:4025.3°C25.3°C25.3°C61.7%1015.6hPa0.0mm3.2km/hSSW7.9km/h0.0W/m²0W/m²
04.09.2026 20:4525.3°C25.3°C25.3°C62.0%1015.7hPa0.0mm3.2km/hSSW6.5km/h0.0W/m²0W/m²
04.09.2026 20:5025.2°C25.3°C25.1°C62.0%1015.7hPa0.0mm3.2km/hS6.5km/h0.0W/m²0W/m²
04.09.2026 20:5525.0°C25.1°C24.9°C62.9%1015.8hPa0.0mm3.2km/hSSW6.5km/h0.0W/m²0W/m²
04.09.2026 21:0024.9°C25.0°C24.9°C63.0%1015.9hPa0.0mm3.2km/hSSW7.9km/h0.0W/m²0W/m²
04.09.2026 21:0524.8°C24.9°C24.7°C63.0%1016.0hPa0.0mm3.2km/hS7.9km/h0.0W/m²0W/m²
04.09.2026 21:1024.7°C24.7°C24.6°C63.0%1016.0hPa0.0mm3.9km/hSSW11.2km/h0.0W/m²0W/m²
04.09.2026 21:1524.6°C24.6°C24.6°C63.0%1015.9hPa0.0mm4.7km/hSSW7.9km/h0.0W/m²0W/m²
04.09.2026 21:2024.6°C24.6°C24.6°C63.0%1016.0hPa0.0mm4.7km/hSSW7.9km/h0.0W/m²0W/m²
04.09.2026 21:2524.6°C24.6°C24.6°C63.0%1016.1hPa0.0mm3.6km/hSSW6.5km/h0.0W/m²0W/m²
04.09.2026 21:3024.5°C24.6°C24.4°C63.0%1016.1hPa0.0mm3.2km/hS6.5km/h0.0W/m²0W/m²
04.09.2026 21:3524.3°C24.4°C24.2°C63.7%1016.1hPa0.0mm3.9km/hSSW7.9km/h0.0W/m²0W/m²
04.09.2026 21:4024.1°C24.2°C24.0°C64.0%1016.1hPa0.0mm4.7km/hSSW9.7km/h0.0W/m²0W/m²
04.09.2026 21:4523.9°C24.0°C23.8°C64.0%1016.1hPa0.0mm4.4km/hS11.2km/h0.0W/m²0W/m²
04.09.2026 21:5023.7°C23.7°C23.7°C64.3%1016.1hPa0.0mm4.7km/hSSW11.2km/h0.0W/m²0W/m²
04.09.2026 21:5523.7°C23.7°C23.6°C64.8%1016.1hPa0.0mm5.9km/hSSW11.2km/h0.0W/m²0W/m²
04.09.2026 22:0023.6°C23.7°C23.6°C65.5%1016.1hPa0.0mm5.3km/hSSW9.7km/h0.0W/m²0W/m²
04.09.2026 22:0523.6°C23.6°C23.5°C65.0%1016.1hPa0.0mm5.2km/hSSW13.0km/h0.0W/m²0W/m²
04.09.2026 22:1023.5°C23.5°C23.4°C65.0%1016.2hPa0.0mm6.5km/hSSW11.2km/h0.0W/m²0W/m²
04.09.2026 22:1523.6°C23.6°C23.5°C64.2%1016.1hPa0.0mm6.5km/hS14.4km/h0.0W/m²0W/m²
04.09.2026 22:2023.5°C23.6°C23.4°C64.6%1016.2hPa0.0mm5.7km/hS7.9km/h0.0W/m²0W/m²
04.09.2026 22:2523.4°C23.5°C23.4°C65.0%1016.2hPa0.0mm4.6km/hS7.9km/h0.0W/m²0W/m²
04.09.2026 22:3023.3°C23.4°C23.2°C65.0%1016.1hPa0.0mm3.6km/hSSW13.0km/h0.0W/m²0W/m²
04.09.2026 22:3523.1°C23.2°C23.1°C65.0%1016.1hPa0.0mm4.7km/hS13.0km/h0.0W/m²0W/m²
04.09.2026 22:4023.1°C23.1°C23.0°C65.0%1016.1hPa0.0mm4.7km/hS9.7km/h0.0W/m²0W/m²
04.09.2026 22:4522.9°C22.9°C22.8°C65.8%1016.2hPa0.0mm3.9km/hESE9.7km/h0.0W/m²0W/m²
04.09.2026 22:5022.8°C22.9°C22.8°C66.0%1016.2hPa0.0mm3.2km/hSE9.7km/h0.0W/m²0W/m²
04.09.2026 22:5522.8°C22.8°C22.7°C66.0%1016.2hPa0.0mm3.2km/hESE6.5km/h0.0W/m²0W/m²
04.09.2026 23:0022.7°C22.8°C22.7°C66.0%1016.2hPa0.0mm3.9km/hSSW11.2km/h0.0W/m²0W/m²
04.09.2026 23:0522.9°C22.9°C22.8°C65.0%1016.1hPa0.0mm4.3km/hSSE6.5km/h0.0W/m²0W/m²
04.09.2026 23:1022.9°C22.9°C22.8°C64.2%1016.2hPa0.0mm4.5km/hSSW9.7km/h0.0W/m²0W/m²
04.09.2026 23:1522.8°C22.9°C22.8°C65.0%1016.1hPa0.0mm5.5km/hSSW11.2km/h0.0W/m²0W/m²
04.09.2026 23:2022.8°C22.9°C22.8°C65.0%1016.1hPa0.0mm6.5km/hSSW13.0km/h0.0W/m²0W/m²
04.09.2026 23:2522.7°C22.8°C22.6°C65.0%1016.1hPa0.0mm5.3km/hS6.5km/h0.0W/m²0W/m²
04.09.2026 23:3022.6°C22.6°C22.5°C65.0%1016.1hPa0.0mm4.6km/hSSW9.7km/h0.0W/m²0W/m²
04.09.2026 23:3522.4°C22.5°C22.4°C65.0%1016.1hPa0.0mm4.1km/hSSW7.9km/h0.0W/m²0W/m²
04.09.2026 23:4022.3°C22.4°C22.2°C65.6%1016.1hPa0.0mm4.2km/hSSW9.7km/h0.0W/m²0W/m²
04.09.2026 23:4522.2°C22.2°C22.1°C66.0%1016.1hPa0.0mm4.7km/hS9.7km/h0.0W/m²0W/m²
04.09.2026 23:5022.1°C22.1°C22.1°C66.0%1016.1hPa0.0mm4.7km/hS9.7km/h0.0W/m²0W/m²
04.09.2026 23:5522.1°C22.1°C22.0°C66.0%1016.1hPa0.0mm4.7km/hSSW9.7km/h0.0W/m²0W/m²
05.09.2026 00:0022.0°C22.1°C21.9°C66.9%1016.2hPa0.0mm4.7km/hS7.9km/h0.0W/m²0W/m²
05.09.2026 00:0521.9°C22.0°C21.9°C67.0%1016.1hPa0.0mm4.7km/hS9.7km/h0.0W/m²0W/m²
05.09.2026 00:1021.9°C22.0°C21.9°C67.0%1016.1hPa0.0mm4.7km/hS9.7km/h0.0W/m²0W/m²
05.09.2026 00:1521.9°C22.0°C21.9°C67.0%1016.1hPa0.0mm4.3km/hS7.9km/h0.0W/m²0W/m²
05.09.2026 00:2021.9°C21.9°C21.8°C67.0%1016.1hPa0.0mm3.2km/hSE6.5km/h0.0W/m²0W/m²
05.09.2026 00:2521.8°C21.8°C21.7°C67.8%1016.1hPa0.0mm2.7km/hSE6.5km/h0.0W/m²0W/m²
05.09.2026 00:3021.6°C21.7°C21.6°C68.2%1016.1hPa0.0mm1.4km/hSE4.7km/h0.0W/m²0W/m²
05.09.2026 00:3521.5°C21.6°C21.4°C69.0%1016.2hPa0.0mm1.4km/hSE6.5km/h0.0W/m²0W/m²
05.09.2026 00:4021.4°C21.4°C21.3°C69.9%1016.1hPa0.0mm1.6km/hS7.9km/h0.0W/m²0W/m²
05.09.2026 00:4521.3°C21.3°C21.2°C70.0%1016.2hPa0.0mm3.2km/hSE7.9km/h0.0W/m²0W/m²
05.09.2026 00:5021.2°C21.3°C21.2°C70.0%1016.1hPa0.0mm2.8km/hESE3.2km/h0.0W/m²0W/m²
05.09.2026 00:5521.2°C21.2°C21.1°C70.0%1016.1hPa0.0mm1.4km/hESE6.5km/h0.0W/m²0W/m²
05.09.2026 01:0021.0°C21.1°C20.9°C70.9%1016.1hPa0.0mm1.4km/hESE6.5km/h0.0W/m²0W/m²
05.09.2026 01:0520.9°C21.0°C20.9°C71.0%1016.1hPa0.0mm1.4km/hSE4.7km/h0.0W/m²0W/m²
05.09.2026 01:1020.9°C20.9°C20.9°C71.0%1016.1hPa0.0mm2.6km/hSE6.5km/h0.0W/m²0W/m²
05.09.2026 01:1520.9°C20.9°C20.9°C71.0%1016.1hPa0.0mm3.2km/hSSW9.7km/h0.0W/m²0W/m²
05.09.2026 01:2020.9°C21.0°C20.9°C71.0%1016.1hPa0.0mm4.2km/hSSW9.7km/h0.0W/m²0W/m²
05.09.2026 01:2520.9°C20.9°C20.9°C71.0%1016.0hPa0.0mm4.3km/hS9.7km/h0.0W/m²0W/m²
05.09.2026 01:3020.8°C20.9°C20.8°C71.0%1016.0hPa0.0mm3.2km/hSE6.5km/h0.0W/m²0W/m²
05.09.2026 01:3520.7°C20.8°C20.7°C71.4%1016.0hPa0.0mm2.0km/hS4.7km/h0.0W/m²0W/m²
05.09.2026 01:4020.6°C20.7°C20.6°C72.0%1016.0hPa0.0mm1.4km/hS6.5km/h0.0W/m²0W/m²
05.09.2026 01:4520.6°C20.6°C20.6°C72.3%1016.0hPa0.0mm1.9km/hS7.9km/h0.0W/m²0W/m²
05.09.2026 01:5020.6°C20.6°C20.5°C72.6%1016.0hPa0.0mm3.2km/hSSW9.7km/h0.0W/m²0W/m²
05.09.2026 01:5520.5°C20.6°C20.5°C72.5%1015.9hPa0.0mm4.4km/hSSW6.5km/h0.0W/m²0W/m²
05.09.2026 02:0020.5°C20.6°C20.5°C73.0%1016.0hPa0.0mm3.2km/hWSW4.7km/h0.0W/m²0W/m²
05.09.2026 02:0520.5°C20.5°C20.4°C73.0%1016.0hPa0.0mm2.0km/hWSW4.7km/h0.0W/m²0W/m²
05.09.2026 02:1020.4°C20.4°C20.3°C74.0%1015.9hPa0.0mm1.4km/hSSW4.7km/h0.0W/m²0W/m²
05.09.2026 02:1520.3°C20.3°C20.2°C74.0%1015.9hPa0.0mm1.4km/hSSW3.2km/h0.0W/m²0W/m²
05.09.2026 02:2020.2°C20.3°C20.2°C74.7%1015.8hPa0.0mm1.4km/hSSW4.7km/h0.0W/m²0W/m²
05.09.2026 02:2520.1°C20.2°C20.1°C75.0%1015.9hPa0.0mm1.4km/hS4.7km/h0.0W/m²0W/m²
05.09.2026 02:3020.1°C20.1°C20.1°C75.0%1016.0hPa0.0mm1.4km/hWSW1.4km/h0.0W/m²0W/m²
05.09.2026 02:3520.1°C20.1°C20.1°C75.2%1016.0hPa0.0mm0.0km/hWSW3.2km/h0.0W/m²0W/m²
05.09.2026 02:4020.0°C20.1°C19.9°C76.0%1015.9hPa0.0mm1.0km/hSSW4.7km/h0.0W/m²0W/m²
05.09.2026 02:4519.8°C19.9°C19.8°C76.0%1015.9hPa0.0mm1.4km/hSSW3.2km/h0.0W/m²0W/m²
05.09.2026 02:5019.8°C19.8°C19.8°C76.0%1015.8hPa0.0mm1.0km/hSSW0.0km/h0.0W/m²0W/m²
05.09.2026 02:5519.8°C19.8°C19.7°C76.0%1015.8hPa0.0mm0.0km/hSSW0.0km/h0.0W/m²0W/m²
05.09.2026 03:0019.7°C19.7°C19.6°C76.9%1015.8hPa0.0mm0.0km/hSSW3.2km/h0.0W/m²0W/m²
05.09.2026 03:0519.6°C19.7°C19.6°C76.6%1015.8hPa0.0mm1.0km/hS7.9km/h0.0W/m²0W/m²
05.09.2026 03:1019.6°C19.7°C19.6°C76.0%1015.8hPa0.0mm2.3km/hSSW7.9km/h0.0W/m²0W/m²
05.09.2026 03:1519.7°C19.8°C19.7°C76.0%1015.8hPa0.0mm3.2km/hSSW4.7km/h0.0W/m²0W/m²
05.09.2026 03:2019.8°C19.8°C19.7°C75.4%1015.9hPa0.0mm2.0km/hS4.7km/h0.0W/m²0W/m²
05.09.2026 03:2519.7°C19.8°C19.7°C75.0%1015.8hPa0.0mm1.4km/hS6.5km/h0.0W/m²0W/m²
05.09.2026 03:3019.6°C19.7°C19.6°C75.8%1015.7hPa0.0mm1.4km/hS4.7km/h0.0W/m²0W/m²
05.09.2026 03:3519.6°C19.6°C19.6°C76.0%1015.7hPa0.0mm1.3km/hS1.4km/h0.0W/m²0W/m²
05.09.2026 03:4019.5°C19.6°C19.4°C76.9%1015.7hPa0.0mm0.0km/hS3.2km/h0.0W/m²0W/m²
05.09.2026 03:4519.4°C19.5°C19.3°C77.5%1015.7hPa0.0mm0.7km/hS3.2km/h0.0W/m²0W/m²
05.09.2026 03:5019.3°C19.4°C19.2°C77.8%1015.7hPa0.0mm1.4km/hSE3.2km/h0.0W/m²0W/m²
05.09.2026 03:5519.2°C19.2°C19.2°C77.0%1015.7hPa0.0mm0.5km/hSSW3.2km/h0.0W/m²0W/m²
05.09.2026 04:0019.2°C19.3°C19.2°C77.9%1015.7hPa0.0mm1.3km/hWSW4.7km/h0.0W/m²0W/m²
05.09.2026 04:0519.3°C19.3°C19.2°C78.0%1015.7hPa0.0mm0.5km/hSSW4.7km/h0.0W/m²0W/m²
05.09.2026 04:1019.2°C19.3°C19.1°C78.0%1015.7hPa0.0mm1.4km/hW4.7km/h0.0W/m²0W/m²
05.09.2026 04:1519.0°C19.1°C18.9°C78.9%1015.8hPa0.0mm1.4km/hWSW3.2km/h0.0W/m²0W/m²
05.09.2026 04:2018.9°C18.9°C18.8°C79.0%1015.8hPa0.0mm1.4km/hSSW3.2km/h0.0W/m²0W/m²
05.09.2026 04:2518.8°C18.8°C18.8°C79.8%1015.8hPa0.0mm1.4km/hSSW1.4km/h0.0W/m²0W/m²
05.09.2026 04:3018.8°C18.8°C18.8°C80.0%1015.8hPa0.0mm1.4km/hSW6.5km/h0.0W/m²0W/m²
05.09.2026 04:3518.7°C18.8°C18.6°C80.2%1015.9hPa0.0mm1.4km/hW4.7km/h0.0W/m²0W/m²
05.09.2026 04:4018.5°C18.6°C18.4°C81.0%1015.9hPa0.0mm1.4km/hSW4.7km/h0.0W/m²0W/m²
05.09.2026 04:4518.4°C18.4°C18.3°C81.4%1016.0hPa0.0mm1.4km/hSSW3.2km/h0.0W/m²0W/m²
05.09.2026 04:5018.3°C18.3°C18.3°C82.0%1015.9hPa0.0mm1.4km/hWSW3.2km/h0.0W/m²0W/m²
05.09.2026 04:5518.3°C18.3°C18.3°C82.0%1015.9hPa0.0mm1.4km/hW4.7km/h0.0W/m²0W/m²
05.09.2026 05:0018.3°C18.3°C18.3°C82.0%1015.9hPa0.0mm1.4km/hW4.7km/h0.0W/m²0W/m²
05.09.2026 05:0518.3°C18.3°C18.3°C82.0%1015.9hPa0.0mm1.4km/hWSW3.2km/h0.0W/m²0W/m²
05.09.2026 05:1018.3°C18.3°C18.3°C82.0%1015.9hPa0.0mm1.4km/hWSW3.2km/h0.0W/m²0W/m²
05.09.2026 05:1518.3°C18.3°C18.3°C82.0%1015.8hPa0.0mm1.6km/hSSW6.5km/h0.0W/m²0W/m²
05.09.2026 05:2018.3°C18.3°C18.2°C82.0%1015.8hPa0.0mm3.2km/hSSW6.5km/h0.0W/m²0W/m²
05.09.2026 05:2518.2°C18.3°C18.2°C82.0%1015.8hPa0.0mm3.2km/hWSW3.2km/h0.0W/m²0W/m²
05.09.2026 05:3018.2°C18.3°C18.2°C82.0%1015.8hPa0.0mm2.4km/hSW3.2km/h0.0W/m²0W/m²
05.09.2026 05:3518.2°C18.2°C18.2°C82.0%1015.8hPa0.0mm1.4km/hSSW4.7km/h0.0W/m²0W/m²
05.09.2026 05:4018.2°C18.2°C18.2°C83.0%1015.7hPa0.0mm2.6km/hSSW4.7km/h0.0W/m²0W/m²
05.09.2026 05:4518.2°C18.2°C18.2°C83.0%1015.7hPa0.0mm2.8km/hWNW3.2km/h0.0W/m²0W/m²
05.09.2026 05:5018.3°C18.3°C18.2°C82.6%1015.6hPa0.0mm1.4km/hW3.2km/h0.0W/m²0W/m²
05.09.2026 05:5518.2°C18.3°C18.1°C82.0%1015.6hPa0.0mm1.4km/hSSW6.5km/h0.0W/m²0W/m²
05.09.2026 06:0018.0°C18.1°C17.9°C82.2%1015.6hPa0.0mm3.0km/hNW6.5km/h0.0W/m²0W/m²
05.09.2026 06:0517.8°C17.9°C17.8°C83.0%1015.6hPa0.0mm2.4km/hNW3.2km/h0.0W/m²0W/m²
05.09.2026 06:1017.7°C17.8°C17.7°C83.3%1015.4hPa0.0mm1.4km/hSSW4.7km/h0.0W/m²0W/m²
05.09.2026 06:1517.7°C17.7°C17.7°C84.0%1015.3hPa0.0mm1.4km/hNW3.2km/h0.0W/m²0W/m²
05.09.2026 06:2017.7°C17.8°C17.7°C84.0%1015.3hPa0.0mm1.1km/hNW3.2km/h0.0W/m²0W/m²
05.09.2026 06:2517.8°C17.9°C17.8°C83.8%1015.2hPa0.0mm1.4km/hSSW4.7km/h0.0W/m²0W/m²
05.09.2026 06:3017.8°C17.9°C17.8°C83.0%1015.3hPa0.0mm1.4km/hSSW3.2km/h0.0W/m²0W/m²
05.09.2026 06:3517.8°C17.8°C17.8°C83.0%1015.4hPa0.0mm1.4km/hSSW3.2km/h5.0W/m²5W/m²
05.09.2026 06:4017.8°C17.8°C17.8°C83.0%1015.5hPa0.0mm0.2km/hWSW3.2km/h5.7W/m²7W/m²
05.09.2026 06:4517.8°C17.8°C17.7°C83.9%1015.8hPa0.0mm1.2km/hWSW3.2km/h9.0W/m²11W/m²
05.09.2026 06:5017.8°C17.9°C17.8°C83.5%1015.9hPa0.0mm1.4km/hW4.7km/h13.2W/m²16W/m²
05.09.2026 06:5517.8°C17.9°C17.8°C83.2%1015.9hPa0.0mm3.0km/hW6.5km/h17.7W/m²19W/m²
05.09.2026 07:0017.8°C17.8°C17.7°C83.7%1015.9hPa0.0mm3.2km/hW6.5km/h21.7W/m²23W/m²
05.09.2026 07:0517.6°C17.7°C17.6°C83.6%1016.0hPa0.0mm3.2km/hW6.5km/h24.7W/m²25W/m²
05.09.2026 07:1017.6°C17.6°C17.6°C84.0%1015.9hPa0.0mm3.1km/hW3.2km/h23.4W/m²25W/m²
05.09.2026 07:1517.6°C17.6°C17.5°C84.0%1015.9hPa0.0mm1.4km/hSW4.7km/h24.7W/m²25W/m²
05.09.2026 07:2017.7°C17.8°C17.6°C85.0%1015.9hPa0.0mm1.4km/hW4.7km/h25.5W/m²26W/m²
05.09.2026 07:2517.8°C17.9°C17.7°C84.6%1015.9hPa0.0mm1.4km/hW4.7km/h25.8W/m²26W/m²
05.09.2026 07:3018.0°C18.1°C17.9°C84.0%1015.9hPa0.0mm1.4km/hSSW1.4km/h25.0W/m²25W/m²
05.09.2026 07:3518.1°C18.2°C18.1°C84.0%1016.0hPa0.0mm1.4km/hSSW4.7km/h25.0W/m²25W/m²
05.09.2026 07:4018.3°C18.3°C18.2°C83.3%1016.0hPa0.0mm1.4km/hW3.2km/h26.5W/m²28W/m²
05.09.2026 07:4518.4°C18.5°C18.4°C83.0%1016.0hPa0.0mm1.4km/hNNW3.2km/h28.7W/m²30W/m²
05.09.2026 07:5018.5°C18.6°C18.5°C83.0%1016.1hPa0.0mm1.4km/hNNW3.2km/h34.3W/m²37W/m²
05.09.2026 07:5518.6°C18.6°C18.6°C83.0%1016.1hPa0.0mm1.4km/hS6.5km/h38.3W/m²40W/m²
05.09.2026 08:0018.7°C18.7°C18.6°C82.1%1016.1hPa0.0mm3.0km/hSSW4.7km/h41.6W/m²44W/m²
05.09.2026 08:0518.7°C18.8°C18.7°C82.1%1016.1hPa0.0mm1.7km/hSSW1.4km/h45.0W/m²46W/m²
05.09.2026 08:1018.8°C18.9°C18.8°C82.0%1016.1hPa0.0mm0.2km/hSSW3.2km/h46.0W/m²46W/m²
05.09.2026 08:1519.0°C19.1°C18.9°C82.0%1016.0hPa0.0mm1.0km/hWSW3.2km/h46.7W/m²47W/m²
05.09.2026 08:2019.1°C19.2°C19.1°C82.0%1015.9hPa0.0mm0.5km/hWSW1.4km/h49.3W/m²53W/m²
05.09.2026 08:2519.3°C19.4°C19.2°C81.7%1015.8hPa0.0mm0.0km/hWSW1.4km/h122.7W/m²244W/m²
05.09.2026 08:3019.6°C19.7°C19.4°C81.0%1015.8hPa0.0mm0.0km/hWSW3.2km/h266.2W/m²278W/m²
05.09.2026 08:3520.0°C20.2°C19.8°C79.9%1015.9hPa0.0mm1.0km/hW4.7km/h237.8W/m²281W/m²
05.09.2026 08:4020.3°C20.4°C20.2°C78.4%1015.9hPa0.0mm1.4km/hSW3.2km/h233.5W/m²318W/m²
05.09.2026 08:4520.4°C20.6°C20.3°C78.0%1015.8hPa0.0mm1.4km/hSW1.4km/h195.7W/m²332W/m²
05.09.2026 08:5020.7°C20.8°C20.6°C77.5%1015.8hPa0.0mm0.2km/hW3.2km/h181.8W/m²308W/m²
05.09.2026 08:5521.0°C21.1°C20.8°C77.0%1015.8hPa0.0mm0.0km/hNW1.4km/h333.0W/m²352W/m²
05.09.2026 09:0021.3°C21.5°C21.2°C76.4%1015.8hPa0.0mm0.4km/hWNW3.2km/h328.7W/m²360W/m²
05.09.2026 09:0521.6°C21.8°C21.5°C75.0%1015.8hPa0.0mm1.4km/hWNW3.2km/h392.0W/m²411W/m²
05.09.2026 09:1022.1°C22.3°C21.8°C74.8%1015.6hPa0.0mm0.8km/hWNW1.4km/h427.6W/m²443W/m²
05.09.2026 09:1522.5°C22.6°C22.3°C72.7%1015.7hPa0.0mm0.4km/hSW4.7km/h488.3W/m²538W/m²
05.09.2026 09:2022.7°C22.8°C22.6°C71.5%1015.7hPa0.0mm1.4km/hSW1.4km/h334.7W/m²526W/m²
05.09.2026 09:2522.8°C22.9°C22.7°C70.6%1015.7hPa0.0mm0.7km/hW3.2km/h228.8W/m²322W/m²
05.09.2026 09:3022.6°C22.7°C22.6°C70.8%1015.7hPa0.0mm1.2km/hW3.2km/h205.5W/m²223W/m²
05.09.2026 09:3522.6°C22.7°C22.6°C72.0%1015.8hPa0.0mm1.4km/hW3.2km/h317.8W/m²399W/m²
05.09.2026 09:4023.0°C23.1°C22.7°C71.6%1016.0hPa0.0mm1.4km/hNNW4.7km/h353.6W/m²399W/m²
05.09.2026 09:4522.9°C23.1°C22.8°C70.2%1016.0hPa0.0mm1.4km/hW4.7km/h262.2W/m²278W/m²
05.09.2026 09:5023.0°C23.2°C22.9°C70.2%1016.1hPa0.0mm1.9km/hW4.7km/h403.7W/m²617W/m²
05.09.2026 09:5523.3°C23.4°C23.2°C69.7%1016.1hPa0.0mm1.7km/hW4.7km/h390.5W/m²478W/m²
05.09.2026 10:0023.5°C23.7°C23.4°C69.4%1016.0hPa0.0mm1.4km/hNNE4.7km/h345.2W/m²438W/m²
05.09.2026 10:0523.9°C24.1°C23.7°C67.6%1015.8hPa0.0mm1.4km/hW4.7km/h447.5W/m²497W/m²
05.09.2026 10:1024.0°C24.1°C23.9°C65.6%1015.9hPa0.0mm1.4km/hWSW4.7km/h341.2W/m²417W/m²
05.09.2026 10:1523.8°C23.9°C23.8°C65.4%1015.8hPa0.0mm1.4km/hW4.7km/h345.8W/m²408W/m²
05.09.2026 10:2023.9°C23.9°C23.8°C65.0%1015.9hPa0.0mm1.4km/hW6.5km/h286.4W/m²352W/m²
05.09.2026 10:2523.9°C23.9°C23.8°C65.0%1015.9hPa0.0mm1.4km/hS4.7km/h243.8W/m²250W/m²
05.09.2026 10:3023.9°C24.0°C23.9°C65.2%1016.0hPa0.0mm1.8km/hS6.5km/h278.7W/m²320W/m²
05.09.2026 10:3524.1°C24.2°C24.0°C64.0%1016.1hPa0.0mm1.4km/hW4.7km/h309.7W/m²338W/m²
05.09.2026 10:4024.2°C24.2°C24.1°C64.0%1016.1hPa0.0mm1.4km/hSSW4.7km/h443.5W/m²529W/m²
05.09.2026 10:4524.3°C24.4°C24.2°C64.2%1016.2hPa0.0mm1.4km/hSSW3.2km/h400.0W/m²506W/m²
05.09.2026 10:5024.6°C24.7°C24.5°C64.6%1016.2hPa0.0mm1.4km/hWNW3.2km/h307.5W/m²334W/m²
05.09.2026 10:5524.7°C24.8°C24.7°C63.6%1016.3hPa0.0mm1.4km/hW4.7km/h408.8W/m²489W/m²
05.09.2026 11:0024.9°C25.2°C24.7°C63.1%1016.1hPa0.0mm1.4km/hWNW4.7km/h471.2W/m²529W/m²
05.09.2026 11:0525.3°C25.7°C25.1°C62.1%1016.2hPa0.0mm1.4km/hW4.7km/h641.0W/m²668W/m²
05.09.2026 11:1025.7°C25.9°C25.4°C59.9%1016.1hPa0.0mm1.4km/hSSW6.5km/h656.3W/m²666W/m²
05.09.2026 11:1525.5°C25.8°C25.4°C59.6%1016.1hPa0.0mm1.4km/hSSE4.7km/h649.3W/m²657W/m²
05.09.2026 11:2026.2°C26.5°C25.8°C58.7%1016.1hPa0.0mm2.1km/hW4.7km/h642.3W/m²656W/m²
05.09.2026 11:2526.2°C26.3°C26.2°C57.8%1016.1hPa0.0mm1.4km/hSSE3.2km/h636.8W/m²652W/m²
05.09.2026 11:3026.5°C26.7°C26.3°C57.8%1016.1hPa0.0mm1.4km/hW6.5km/h665.5W/m²679W/m²
05.09.2026 11:3526.5°C26.6°C26.3°C57.7%1016.1hPa0.0mm1.4km/hSW4.7km/h699.5W/m²729W/m²
05.09.2026 11:4026.6°C26.7°C26.4°C57.5%1016.0hPa0.0mm1.4km/hSE6.5km/h638.2W/m²770W/m²
05.09.2026 11:4526.4°C26.4°C26.3°C57.4%1016.0hPa0.0mm1.4km/hS6.5km/h578.5W/m²635W/m²
05.09.2026 11:5026.8°C27.1°C26.5°C57.1%1016.0hPa0.0mm3.0km/hS4.7km/h554.5W/m²647W/m²
05.09.2026 11:5527.1°C27.1°C27.0°C54.6%1015.9hPa0.0mm2.1km/hNNE4.7km/h531.7W/m²571W/m²
05.09.2026 12:0027.2°C27.3°C27.0°C55.0%1015.8hPa0.0mm1.4km/hNNW6.5km/h628.2W/m²724W/m²
05.09.2026 12:0527.4°C27.4°C27.3°C54.2%1015.8hPa0.0mm1.4km/hNE4.7km/h704.8W/m²728W/m²
05.09.2026 12:1027.9°C28.2°C27.5°C54.5%1015.8hPa0.0mm1.4km/hNNE4.7km/h710.5W/m²729W/m²
05.09.2026 12:1528.1°C28.2°C28.1°C52.5%1015.7hPa0.0mm1.9km/hW7.9km/h593.8W/m²631W/m²
05.09.2026 12:2028.1°C28.3°C27.9°C53.0%1015.6hPa0.0mm2.0km/hE4.7km/h638.0W/m²652W/m²
05.09.2026 12:2528.1°C28.3°C27.9°C52.5%1015.5hPa0.0mm1.4km/hESE4.7km/h560.0W/m²650W/m²
05.09.2026 12:3028.2°C28.4°C28.1°C52.4%1015.5hPa0.0mm1.4km/hNNE7.9km/h608.8W/m²638W/m²
05.09.2026 12:3528.3°C28.4°C28.1°C52.9%1015.5hPa0.0mm2.3km/hSE6.5km/h677.4W/m²701W/m²
05.09.2026 12:4028.6°C28.8°C28.4°C51.8%1015.4hPa0.0mm2.0km/hWNW6.5km/h671.3W/m²717W/m²
05.09.2026 12:4529.1°C29.4°C28.9°C52.2%1015.3hPa0.0mm1.4km/hENE6.5km/h683.0W/m²707W/m²
05.09.2026 12:5029.4°C29.6°C29.2°C51.0%1015.3hPa0.0mm1.4km/hNE4.7km/h682.5W/m²700W/m²
05.09.2026 12:5529.8°C29.9°C29.6°C49.9%1015.3hPa0.0mm1.4km/hESE7.9km/h719.8W/m²744W/m²
05.09.2026 13:0029.9°C30.1°C29.8°C49.0%1015.3hPa0.0mm1.4km/hE6.5km/h700.3W/m²756W/m²